sensor_id;sensor_type;location;lat;lon;timestamp;P1;durP1;ratioP1;P2;durP2;ratioP2
30249;SDS011;17064;47.974;13.826;2022-12-07T04:03:22;22.73;;;10.82;;
30249;SDS011;17064;47.974;13.826;2022-12-07T04:08:22;20.60;;;10.90;;
30249;SDS011;17064;47.974;13.826;2022-12-07T04:13:23;25.05;;;11.82;;
30249;SDS011;17064;47.974;13.826;2022-12-07T04:18:24;23.20;;;10.82;;
30249;SDS011;17064;47.974;13.826;2022-12-07T04:23:24;23.30;;;10.40;;
30249;SDS011;17064;47.974;13.826;2022-12-07T04:28:25;21.55;;;10.90;;
30249;SDS011;17064;47.974;13.826;2022-12-07T04:33:26;20.92;;;9.65;;
30249;SDS011;17064;47.974;13.826;2022-12-07T04:38:26;25.90;;;11.88;;
30249;SDS011;17064;47.974;13.826;2022-12-07T04:43:27;22.42;;;11.60;;
30249;SDS011;17064;47.974;13.826;2022-12-07T04:48:28;25.52;;;12.07;;
30249;SDS011;17064;47.974;13.826;2022-12-07T04:53:28;22.27;;;11.95;;
30249;SDS011;17064;47.974;13.826;2022-12-07T04:58:29;21.77;;;11.65;;
30249;SDS011;17064;47.974;13.826;2022-12-07T05:03:30;23.45;;;12.10;;
30249;SDS011;17064;47.974;13.826;2022-12-07T05:08:31;20.52;;;11.13;;
30249;SDS011;17064;47.974;13.826;2022-12-07T05:13:33;23.33;;;11.38;;
30249;SDS011;17064;47.974;13.826;2022-12-07T05:18:35;23.38;;;11.85;;
30249;SDS011;17064;47.974;13.826;2022-12-07T05:23:35;21.15;;;12.40;;
30249;SDS011;17064;47.974;13.826;2022-12-07T05:28:36;25.23;;;11.90;;
30249;SDS011;17064;47.974;13.826;2022-12-07T05:33:37;25.25;;;12.13;;
30249;SDS011;17064;47.974;13.826;2022-12-07T05:38:37;23.20;;;11.82;;
30249;SDS011;17064;47.974;13.826;2022-12-07T05:43:38;24.20;;;13.00;;
30249;SDS011;17064;47.974;13.826;2022-12-07T05:48:39;25.25;;;12.07;;
30249;SDS011;17064;47.974;13.826;2022-12-07T05:53:39;22.85;;;11.73;;
30249;SDS011;17064;47.974;13.826;2022-12-07T05:58:40;23.83;;;12.35;;
30249;SDS011;17064;47.974;13.826;2022-12-07T06:03:59;23.95;;;12.43;;
30249;SDS011;17064;47.974;13.826;2022-12-07T06:09:00;23.35;;;12.40;;
30249;SDS011;17064;47.974;13.826;2022-12-07T06:14:01;24.52;;;12.25;;
30249;SDS011;17064;47.974;13.826;2022-12-07T06:19:02;25.77;;;12.75;;
30249;SDS011;17064;47.974;13.826;2022-12-07T06:24:03;23.40;;;12.45;;
30249;SDS011;17064;47.974;13.826;2022-12-07T06:29:04;22.35;;;12.88;;
30249;SDS011;17064;47.974;13.826;2022-12-07T06:34:05;23.88;;;12.85;;
30249;SDS011;17064;47.974;13.826;2022-12-07T06:39:09;23.90;;;12.75;;
30249;SDS011;17064;47.974;13.826;2022-12-07T06:44:11;26.75;;;13.18;;
30249;SDS011;17064;47.974;13.826;2022-12-07T06:49:11;23.83;;;13.02;;
30249;SDS011;17064;47.974;13.826;2022-12-07T06:54:12;23.35;;;12.50;;
30249;SDS011;17064;47.974;13.826;2022-12-07T06:59:14;22.67;;;12.45;;
30249;SDS011;17064;47.974;13.826;2022-12-07T07:04:15;21.98;;;11.20;;
30249;SDS011;17064;47.974;13.826;2022-12-07T07:09:15;23.02;;;11.98;;
30249;SDS011;17064;47.974;13.826;2022-12-07T07:14:16;21.00;;;11.15;;
30249;SDS011;17064;47.974;13.826;2022-12-07T07:19:19;19.95;;;11.27;;
30249;SDS011;17064;47.974;13.826;2022-12-07T07:24:19;23.27;;;10.52;;
30249;SDS011;17064;47.974;13.826;2022-12-07T07:29:20;18.85;;;10.80;;
30249;SDS011;17064;47.974;13.826;2022-12-07T07:34:21;19.98;;;10.60;;
30249;SDS011;17064;47.974;13.826;2022-12-07T07:39:21;24.58;;;11.02;;
30249;SDS011;17064;47.974;13.826;2022-12-07T07:44:22;18.65;;;10.77;;
30249;SDS011;17064;47.974;13.826;2022-12-07T07:49:23;18.83;;;9.93;;
30249;SDS011;17064;47.974;13.826;2022-12-07T07:54:23;20.35;;;10.75;;
30249;SDS011;17064;47.974;13.826;2022-12-07T07:59:24;17.17;;;9.82;;
30249;SDS011;17064;47.974;13.826;2022-12-07T08:04:25;18.05;;;8.93;;
30249;SDS011;17064;47.974;13.826;2022-12-07T08:09:26;15.65;;;9.05;;
30249;SDS011;17064;47.974;13.826;2022-12-07T08:14:26;18.60;;;9.25;;
30249;SDS011;17064;47.974;13.826;2022-12-07T08:19:28;16.25;;;9.05;;
30249;SDS011;17064;47.974;13.826;2022-12-07T08:24:29;19.85;;;10.07;;
30249;SDS011;17064;47.974;13.826;2022-12-07T08:29:30;17.67;;;8.60;;
30249;SDS011;17064;47.974;13.826;2022-12-07T08:34:31;19.38;;;8.73;;
30249;SDS011;17064;47.974;13.826;2022-12-07T08:39:31;11.70;;;7.38;;
30249;SDS011;17064;47.974;13.826;2022-12-07T08:44:32;14.23;;;7.30;;
30249;SDS011;17064;47.974;13.826;2022-12-07T08:49:34;14.35;;;7.45;;
30249;SDS011;17064;47.974;13.826;2022-12-07T08:54:39;14.68;;;7.63;;
30249;SDS011;17064;47.974;13.826;2022-12-07T08:59:41;17.40;;;7.85;;
30249;SDS011;17064;47.974;13.826;2022-12-07T09:04:41;17.60;;;7.35;;
30249;SDS011;17064;47.974;13.826;2022-12-07T09:09:42;18.33;;;8.95;;
30249;SDS011;17064;47.974;13.826;2022-12-07T09:14:43;12.60;;;5.80;;
30249;SDS011;17064;47.974;13.826;2022-12-07T09:19:43;10.82;;;5.10;;
30249;SDS011;17064;47.974;13.826;2022-12-07T09:24:44;11.45;;;5.55;;
30249;SDS011;17064;47.974;13.826;2022-12-07T09:29:45;10.73;;;5.53;;
30249;SDS011;17064;47.974;13.826;2022-12-07T09:34:46;9.23;;;5.35;;
30249;SDS011;17064;47.974;13.826;2022-12-07T09:39:47;6.53;;;4.00;;
30249;SDS011;17064;47.974;13.826;2022-12-07T09:44:47;9.55;;;6.05;;
30249;SDS011;17064;47.974;13.826;2022-12-07T09:49:48;14.68;;;6.47;;
30249;SDS011;17064;47.974;13.826;2022-12-07T09:54:49;11.30;;;5.97;;
30249;SDS011;17064;47.974;13.826;2022-12-07T09:59:50;8.15;;;4.93;;
30249;SDS011;17064;47.974;13.826;2022-12-07T10:04:51;9.00;;;5.13;;
30249;SDS011;17064;47.974;13.826;2022-12-07T10:09:52;10.70;;;5.85;;
30249;SDS011;17064;47.974;13.826;2022-12-07T10:14:58;9.90;;;5.22;;
30249;SDS011;17064;47.974;13.826;2022-12-07T10:25:19;8.60;;;4.88;;
30249;SDS011;17064;47.974;13.826;2022-12-07T10:30:21;10.47;;;4.60;;
30249;SDS011;17064;47.974;13.826;2022-12-07T10:35:26;8.20;;;4.82;;
30249;SDS011;17064;47.974;13.826;2022-12-07T10:40:33;11.13;;;5.20;;
30249;SDS011;17064;47.974;13.826;2022-12-07T10:45:38;8.35;;;4.32;;
30249;SDS011;17064;47.974;13.826;2022-12-07T10:51:00;10.65;;;4.68;;
30249;SDS011;17064;47.974;13.826;2022-12-07T10:56:42;8.25;;;4.60;;
30249;SDS011;17064;47.974;13.826;2022-12-07T11:02:18;11.57;;;8.15;;
30249;SDS011;17064;47.974;13.826;2022-12-07T11:17:56;4.75;;;3.05;;
30249;SDS011;17064;47.974;13.826;2022-12-07T11:23:15;4.18;;;2.90;;
30249;SDS011;17064;47.974;13.826;2022-12-07T11:38:50;5.32;;;3.30;;
30249;SDS011;17064;47.974;13.826;2022-12-07T11:44:08;9.02;;;4.47;;
30249;SDS011;17064;47.974;13.826;2022-12-07T11:54:52;6.03;;;3.38;;
30249;SDS011;17064;47.974;13.826;2022-12-07T11:59:56;5.68;;;3.13;;
30249;SDS011;17064;47.974;13.826;2022-12-07T12:10:19;3.78;;;2.97;;
30249;SDS011;17064;47.974;13.826;2022-12-07T12:21:00;6.20;;;3.45;;
30249;SDS011;17064;47.974;13.826;2022-12-07T12:26:18;4.28;;;2.75;;
30249;SDS011;17064;47.974;13.826;2022-12-07T12:51:50;4.15;;;2.78;;
30249;SDS011;17064;47.974;13.826;2022-12-07T12:57:07;3.03;;;2.17;;
30249;SDS011;17064;47.974;13.826;2022-12-07T13:28:52;6.53;;;3.95;;
30249;SDS011;17064;47.974;13.826;2022-12-07T13:34:32;5.43;;;3.45;;
30249;SDS011;17064;47.974;13.826;2022-12-07T13:39:34;4.60;;;3.50;;
30249;SDS011;17064;47.974;13.826;2022-12-07T13:44:44;6.70;;;3.80;;
30249;SDS011;17064;47.974;13.826;2022-12-07T14:00:04;10.27;;;5.10;;
30249;SDS011;17064;47.974;13.826;2022-12-07T14:05:52;7.88;;;4.53;;
30249;SDS011;17064;47.974;13.826;2022-12-07T14:10:36;7.57;;;3.80;;
30249;SDS011;17064;47.974;13.826;2022-12-07T14:15:54;7.13;;;4.32;;
30249;SDS011;17064;47.974;13.826;2022-12-07T14:26:20;8.57;;;4.03;;
30249;SDS011;17064;47.974;13.826;2022-12-07T14:31:21;6.78;;;4.15;;
30249;SDS011;17064;47.974;13.826;2022-12-07T14:36:24;8.05;;;4.05;;
30249;SDS011;17064;47.974;13.826;2022-12-07T14:41:25;5.32;;;3.08;;
30249;SDS011;17064;47.974;13.826;2022-12-07T14:46:45;9.38;;;4.88;;
30249;SDS011;17064;47.974;13.826;2022-12-07T14:51:46;6.63;;;3.83;;
30249;SDS011;17064;47.974;13.826;2022-12-07T14:56:47;5.78;;;3.65;;
30249;SDS011;17064;47.974;13.826;2022-12-07T15:01:49;7.47;;;3.35;;
30249;SDS011;17064;47.974;13.826;2022-12-07T15:06:57;6.47;;;3.97;;
30249;SDS011;17064;47.974;13.826;2022-12-07T15:11:59;7.60;;;3.90;;
30249;SDS011;17064;47.974;13.826;2022-12-07T15:17:00;6.93;;;4.00;;
30249;SDS011;17064;47.974;13.826;2022-12-07T15:22:00;7.80;;;4.22;;
30249;SDS011;17064;47.974;13.826;2022-12-07T15:27:01;6.60;;;3.40;;
30249;SDS011;17064;47.974;13.826;2022-12-07T15:32:02;7.38;;;4.15;;
30249;SDS011;17064;47.974;13.826;2022-12-07T15:37:03;11.07;;;6.32;;
30249;SDS011;17064;47.974;13.826;2022-12-07T15:42:03;24.50;;;12.02;;
30249;SDS011;17064;47.974;13.826;2022-12-07T15:47:04;22.33;;;10.07;;
30249;SDS011;17064;47.974;13.826;2022-12-07T15:52:06;14.52;;;7.40;;
30249;SDS011;17064;47.974;13.826;2022-12-07T15:57:06;17.40;;;7.57;;
30249;SDS011;17064;47.974;13.826;2022-12-07T16:02:08;15.65;;;8.02;;
30249;SDS011;17064;47.974;13.826;2022-12-07T16:07:10;10.77;;;5.67;;
30249;SDS011;17064;47.974;13.826;2022-12-07T16:12:12;14.20;;;4.63;;
30249;SDS011;17064;47.974;13.826;2022-12-07T16:17:13;9.98;;;5.07;;
30249;SDS011;17064;47.974;13.826;2022-12-07T16:22:14;10.80;;;4.35;;
30249;SDS011;17064;47.974;13.826;2022-12-07T16:27:15;7.53;;;3.92;;
30249;SDS011;17064;47.974;13.826;2022-12-07T16:32:16;5.13;;;3.38;;
30249;SDS011;17064;47.974;13.826;2022-12-07T16:37:16;8.68;;;4.05;;
30249;SDS011;17064;47.974;13.826;2022-12-07T16:42:17;11.32;;;5.95;;
30249;SDS011;17064;47.974;13.826;2022-12-07T16:47:18;15.15;;;7.32;;
30249;SDS011;17064;47.974;13.826;2022-12-07T16:52:19;12.75;;;7.78;;
30249;SDS011;17064;47.974;13.826;2022-12-07T16:57:21;23.20;;;7.07;;
30249;SDS011;17064;47.974;13.826;2022-12-07T17:02:22;10.15;;;6.50;;
30249;SDS011;17064;47.974;13.826;2022-12-07T17:07:23;8.98;;;5.05;;
30249;SDS011;17064;47.974;13.826;2022-12-07T17:12:23;8.70;;;5.05;;
30249;SDS011;17064;47.974;13.826;2022-12-07T17:17:25;7.85;;;4.60;;
30249;SDS011;17064;47.974;13.826;2022-12-07T17:22:26;10.23;;;5.03;;
30249;SDS011;17064;47.974;13.826;2022-12-07T17:27:27;9.32;;;4.53;;
30249;SDS011;17064;47.974;13.826;2022-12-07T17:32:28;9.23;;;5.15;;
30249;SDS011;17064;47.974;13.826;2022-12-07T17:37:29;10.90;;;5.95;;
30249;SDS011;17064;47.974;13.826;2022-12-07T17:42:31;9.77;;;5.30;;
30249;SDS011;17064;47.974;13.826;2022-12-07T17:47:39;10.65;;;5.90;;
30249;SDS011;17064;47.974;13.826;2022-12-07T17:52:40;10.85;;;4.93;;
30249;SDS011;17064;47.974;13.826;2022-12-07T17:57:59;8.32;;;4.93;;
30249;SDS011;17064;47.974;13.826;2022-12-07T18:03:00;10.68;;;5.13;;
30249;SDS011;17064;47.974;13.826;2022-12-07T18:08:01;10.20;;;5.35;;
30249;SDS011;17064;47.974;13.826;2022-12-07T18:13:01;10.23;;;6.18;;
30249;SDS011;17064;47.974;13.826;2022-12-07T18:18:21;10.32;;;6.05;;
30249;SDS011;17064;47.974;13.826;2022-12-07T18:23:22;12.43;;;5.25;;
30249;SDS011;17064;47.974;13.826;2022-12-07T18:28:23;8.93;;;4.90;;
30249;SDS011;17064;47.974;13.826;2022-12-07T18:33:24;9.30;;;5.05;;
30249;SDS011;17064;47.974;13.826;2022-12-07T18:38:25;8.57;;;5.07;;
30249;SDS011;17064;47.974;13.826;2022-12-07T18:43:28;9.50;;;5.25;;
30249;SDS011;17064;47.974;13.826;2022-12-07T18:48:29;6.63;;;4.25;;
30249;SDS011;17064;47.974;13.826;2022-12-07T18:53:30;9.38;;;5.22;;
30249;SDS011;17064;47.974;13.826;2022-12-07T18:58:33;9.48;;;5.10;;
30249;SDS011;17064;47.974;13.826;2022-12-07T19:03:34;11.52;;;5.70;;
30249;SDS011;17064;47.974;13.826;2022-12-07T19:08:35;9.85;;;5.53;;
30249;SDS011;17064;47.974;13.826;2022-12-07T19:13:36;10.00;;;5.50;;
30249;SDS011;17064;47.974;13.826;2022-12-07T19:18:37;10.30;;;6.50;;
30249;SDS011;17064;47.974;13.826;2022-12-07T19:23:38;10.98;;;6.25;;
30249;SDS011;17064;47.974;13.826;2022-12-07T19:28:40;10.07;;;5.78;;
30249;SDS011;17064;47.974;13.826;2022-12-07T19:33:41;10.70;;;4.95;;
30249;SDS011;17064;47.974;13.826;2022-12-07T19:38:43;14.57;;;6.35;;
30249;SDS011;17064;47.974;13.826;2022-12-07T19:43:45;10.02;;;5.57;;
30249;SDS011;17064;47.974;13.826;2022-12-07T19:48:46;11.68;;;5.63;;
30249;SDS011;17064;47.974;13.826;2022-12-07T19:53:48;10.07;;;5.40;;
30249;SDS011;17064;47.974;13.826;2022-12-07T19:58:50;9.70;;;5.20;;
30249;SDS011;17064;47.974;13.826;2022-12-07T20:03:51;12.40;;;6.68;;
30249;SDS011;17064;47.974;13.826;2022-12-07T20:08:52;10.10;;;5.32;;
30249;SDS011;17064;47.974;13.826;2022-12-07T20:13:53;5.70;;;4.20;;
30249;SDS011;17064;47.974;13.826;2022-12-07T20:18:56;9.63;;;4.40;;
30249;SDS011;17064;47.974;13.826;2022-12-07T20:23:59;8.15;;;4.22;;
30249;SDS011;17064;47.974;13.826;2022-12-07T20:29:05;8.10;;;4.53;;
30249;SDS011;17064;47.974;13.826;2022-12-07T20:34:10;8.77;;;4.38;;
30249;SDS011;17064;47.974;13.826;2022-12-07T20:39:12;7.65;;;4.22;;
30249;SDS011;17064;47.974;13.826;2022-12-07T20:44:14;7.18;;;3.40;;
30249;SDS011;17064;47.974;13.826;2022-12-07T20:49:16;6.10;;;3.42;;
30249;SDS011;17064;47.974;13.826;2022-12-07T20:54:17;6.18;;;3.05;;
30249;SDS011;17064;47.974;13.826;2022-12-07T20:59:18;6.13;;;3.50;;
30249;SDS011;17064;47.974;13.826;2022-12-07T21:04:19;5.15;;;3.42;;
30249;SDS011;17064;47.974;13.826;2022-12-07T21:09:20;7.78;;;3.22;;
30249;SDS011;17064;47.974;13.826;2022-12-07T21:14:25;6.93;;;3.03;;
30249;SDS011;17064;47.974;13.826;2022-12-07T21:19:26;5.10;;;3.05;;
30249;SDS011;17064;47.974;13.826;2022-12-07T21:24:27;4.60;;;2.95;;
30249;SDS011;17064;47.974;13.826;2022-12-07T21:29:27;4.50;;;2.85;;
30249;SDS011;17064;47.974;13.826;2022-12-07T21:34:28;5.65;;;3.08;;
30249;SDS011;17064;47.974;13.826;2022-12-07T21:39:29;6.93;;;3.40;;
30249;SDS011;17064;47.974;13.826;2022-12-07T21:44:30;10.88;;;3.92;;
30249;SDS011;17064;47.974;13.826;2022-12-07T21:49:30;9.25;;;4.55;;
30249;SDS011;17064;47.974;13.826;2022-12-07T21:54:34;5.25;;;3.05;;
30249;SDS011;17064;47.974;13.826;2022-12-07T21:59:35;5.63;;;2.75;;
30249;SDS011;17064;47.974;13.826;2022-12-07T22:04:36;4.63;;;2.55;;
30249;SDS011;17064;47.974;13.826;2022-12-07T22:09:37;5.75;;;3.40;;
30249;SDS011;17064;47.974;13.826;2022-12-07T22:14:38;6.65;;;4.10;;
30249;SDS011;17064;47.974;13.826;2022-12-07T22:19:57;4.93;;;3.30;;
30249;SDS011;17064;47.974;13.826;2022-12-07T22:24:58;4.68;;;2.78;;
30249;SDS011;17064;47.974;13.826;2022-12-07T22:29:59;4.75;;;2.88;;
30249;SDS011;17064;47.974;13.826;2022-12-07T22:34:59;5.15;;;3.10;;
30249;SDS011;17064;47.974;13.826;2022-12-07T22:40:00;3.90;;;2.58;;
30249;SDS011;17064;47.974;13.826;2022-12-07T22:45:01;4.43;;;2.80;;
30249;SDS011;17064;47.974;13.826;2022-12-07T22:50:09;7.65;;;3.25;;
30249;SDS011;17064;47.974;13.826;2022-12-07T22:55:10;4.97;;;3.20;;
30249;SDS011;17064;47.974;13.826;2022-12-07T23:00:11;6.72;;;3.15;;
30249;SDS011;17064;47.974;13.826;2022-12-07T23:05:12;6.68;;;3.10;;
30249;SDS011;17064;47.974;13.826;2022-12-07T23:10:13;6.40;;;3.30;;
30249;SDS011;17064;47.974;13.826;2022-12-07T23:15:14;5.40;;;3.17;;
30249;SDS011;17064;47.974;13.826;2022-12-07T23:20:15;4.63;;;2.75;;
30249;SDS011;17064;47.974;13.826;2022-12-07T23:25:16;5.78;;;2.88;;
30249;SDS011;17064;47.974;13.826;2022-12-07T23:30:18;4.22;;;2.53;;
30249;SDS011;17064;47.974;13.826;2022-12-07T23:35:19;5.78;;;2.53;;
30249;SDS011;17064;47.974;13.826;2022-12-07T23:40:19;3.88;;;2.47;;
30249;SDS011;17064;47.974;13.826;2022-12-07T23:45:20;3.85;;;2.28;;
30249;SDS011;17064;47.974;13.826;2022-12-07T23:50:21;5.40;;;2.55;;
30249;SDS011;17064;47.974;13.826;2022-12-07T23:55:22;4.07;;;2.40;;
